Time;durP1;ratioP1;P1;durP2;ratioP2;P2;SDS_P1;SDS_P2;PMS_P1;PMS_P2;Temp;Humidity;BMP_temperature;BMP_pressure;BME280_temperature;BME280_humidity;BME280_pressure;Samples;Min_cycle;Max_cycle;Signal;HPM_P1;HPM_P2
2021/09/14 00:01:48;;;;;;;;;7.75;7.25;;;;;22.24;64.09;100904.31;4992154;28;47797;-67
2021/09/14 00:04:13;;;;;;;;;10.50;7.00;;;;;22.21;63.97;100909.97;4995327;28;49551;-67
2021/09/14 00:06:40;;;;;;;;;8.50;6.25;;;;;22.18;63.87;100907.56;4996042;28;45410;-67
2021/09/14 00:09:07;;;;;;;;;8.00;7.75;;;;;22.13;64.24;100903.47;4996672;28;45827;-67
2021/09/14 00:11:34;;;;;;;;;9.00;6.75;;;;;22.09;64.92;100887.78;4996591;28;45427;-67
2021/09/14 00:14:00;;;;;;;;;7.75;7.00;;;;;22.05;65.00;100887.22;4987553;28;46586;-67
2021/09/14 00:16:25;;;;;;;;;7.00;7.00;;;;;21.99;64.39;100887.75;4988528;28;45532;-67
2021/09/14 00:18:51;;;;;;;;;7.25;7.00;;;;;21.98;64.38;100895.91;4993698;28;45453;-67
2021/09/14 00:21:16;;;;;;;;;9.00;7.00;;;;;21.94;64.19;100884.63;4994740;28;45528;-67
2021/09/14 00:23:42;;;;;;;;;6.00;5.75;;;;;21.89;64.52;100890.41;4985151;28;46260;-67
2021/09/14 00:26:07;;;;;;;;;7.50;7.50;;;;;21.83;64.30;100888.25;4993996;28;45653;-67
2021/09/14 00:28:33;;;;;;;;;9.25;7.25;;;;;21.77;64.39;100886.13;4989541;28;45526;-67
2021/09/14 00:30:58;;;;;;;;;7.50;7.50;;;;;21.78;64.54;100895.00;4992186;28;45490;-67
2021/09/14 00:33:23;;;;;;;;;6.75;6.00;;;;;21.70;64.96;100890.31;4979703;28;45450;-67
2021/09/14 00:35:49;;;;;;;;;8.50;7.25;;;;;21.66;65.57;100888.88;4995743;28;54124;-67
2021/09/14 00:38:14;;;;;;;;;9.25;8.00;;;;;21.60;66.06;100892.09;4995228;28;46290;-67
2021/09/14 00:40:39;;;;;;;;;8.75;8.00;;;;;21.55;65.86;100880.94;4995213;28;45333;-67
2021/09/14 00:43:04;;;;;;;;;7.25;7.25;;;;;21.52;65.88;100890.09;4980990;28;45459;-67
2021/09/14 00:45:30;;;;;;;;;7.75;7.00;;;;;21.49;65.99;100895.69;4994872;28;45456;-67
2021/09/14 00:47:55;;;;;;;;;11.75;8.75;;;;;21.44;65.98;100897.06;4989912;28;45427;-67
2021/09/14 00:50:21;;;;;;;;;8.25;7.00;;;;;21.41;65.80;100892.00;4991659;28;45514;-68
2021/09/14 00:52:46;;;;;;;;;8.25;7.50;;;;;21.34;66.01;100903.19;4993891;28;45577;-67
2021/09/14 00:55:11;;;;;;;;;6.25;6.25;;;;;21.28;66.44;100902.84;4987520;28;45605;-67
2021/09/14 00:57:37;;;;;;;;;8.25;7.50;;;;;21.20;66.54;100908.88;4995433;28;45698;-67
2021/09/14 01:00:06;;;;;;;;;8.50;6.50;;;;;21.18;66.96;100900.09;4987525;28;45481;-67
2021/09/14 01:02:32;;;;;;;;;9.75;8.00;;;;;21.16;66.79;100890.53;4988433;28;47205;-67
2021/09/14 01:04:57;;;;;;;;;9.50;7.00;;;;;21.13;67.35;100893.47;4985366;28;45524;-67
2021/09/14 01:07:23;;;;;;;;;8.25;8.00;;;;;21.07;67.55;100881.47;4986912;28;45413;-67
2021/09/14 01:09:50;;;;;;;;;7.00;6.00;;;;;21.06;67.89;100890.47;4995661;28;45508;-67
2021/09/14 01:12:17;;;;;;;;;8.75;8.00;;;;;21.06;67.64;100893.97;4988994;28;46352;-66
2021/09/14 01:14:54;;;;;;;;;9.75;7.50;;;;;21.08;68.10;100900.03;4985718;28;45700;-67
2021/09/14 01:17:20;;;;;;;;;9.00;8.25;;;;;21.11;68.24;100902.47;4989524;28;45450;-66
2021/09/14 01:19:45;;;;;;;;;11.50;10.50;;;;;21.13;68.36;100899.66;4989474;28;45357;-67
2021/09/14 01:22:11;;;;;;;;;8.50;8.50;;;;;21.13;68.22;100905.00;4989809;28;45575;-67
2021/09/14 01:24:36;;;;;;;;;8.00;7.25;;;;;21.14;68.44;100905.84;4987286;28;45434;-67
2021/09/14 01:27:02;;;;;;;;;8.25;8.25;;;;;21.16;68.54;100910.09;4995868;28;45376;-67
2021/09/14 01:32:11;;;;;;;;;7.75;7.25;;;;;21.17;68.43;100889.56;4994461;28;45695;-67
2021/09/14 01:34:36;;;;;;;;;9.75;7.00;;;;;21.18;68.04;100893.91;4991772;28;45773;-67
2021/09/14 01:37:01;;;;;;;;;8.75;8.75;;;;;21.19;68.14;100904.47;4995897;28;45415;-67
2021/09/14 01:39:27;;;;;;;;;7.25;7.00;;;;;21.20;68.29;100910.69;4984567;28;45513;-69
2021/09/14 01:41:52;;;;;;;;;9.50;9.00;;;;;21.10;68.02;100908.78;4982076;28;56460;-67
2021/09/14 01:44:17;;;;;;;;;10.25;8.00;;;;;21.20;68.44;100932.06;4983698;28;45317;-67
2021/09/14 01:46:43;;;;;;;;;11.25;10.00;;;;;21.20;68.24;100942.75;4989006;28;50351;-66
2021/09/14 01:49:09;;;;;;;;;8.25;8.25;;;;;21.19;68.59;100943.72;4992440;28;45449;-67
2021/09/14 01:51:34;;;;;;;;;8.75;8.00;;;;;21.20;68.11;100958.81;4982858;28;46840;-67
2021/09/14 01:53:59;;;;;;;;;11.75;9.00;;;;;21.20;68.13;100970.34;4989575;28;45348;-67
2021/09/14 01:56:25;;;;;;;;;10.00;10.00;;;;;21.20;67.67;100982.84;4988420;28;45517;-67
2021/09/14 01:58:51;;;;;;;;;9.00;7.25;;;;;21.22;68.10;100986.22;4994561;28;45723;-66
2021/09/14 02:01:24;;;;;;;;;12.25;9.00;;;;;21.19;67.50;100986.47;4990914;28;47122;-67
2021/09/14 02:04:01;;;;;;;;;10.50;9.50;;;;;21.17;68.08;100983.94;4987922;28;45719;-67
2021/09/14 02:06:47;;;;;;;;;8.00;7.50;;;;;21.17;68.24;100983.09;4993744;28;45649;-67
2021/09/14 02:33:52;;;;;;;;;9.25;9.25;;;;;21.07;70.44;100941.09;4987854;28;45780;-69
2021/09/14 03:00:31;;;;;;;;;10.25;9.00;;;;;21.00;71.93;100870.47;4978775;28;45281;-69
2021/09/14 03:02:56;;;;;;;;;15.00;11.00;;;;;20.99;71.74;100879.47;4994882;28;45638;-69
2021/09/14 03:05:21;;;;;;;;;9.75;9.75;;;;;20.93;71.72;100869.25;4993616;28;46006;-69
2021/09/14 03:07:47;;;;;;;;;10.00;8.50;;;;;20.91;71.19;100873.06;4992607;28;49392;-69
2021/09/14 03:10:12;;;;;;;;;10.00;9.00;;;;;20.88;72.10;100852.81;5007821;28;50278;-69
2021/09/14 03:12:38;;;;;;;;;10.75;10.00;;;;;20.85;72.36;100853.91;4985652;28;45773;-69
2021/09/14 03:15:03;;;;;;;;;11.75;10.75;;;;;20.84;72.53;100859.38;4996368;28;55070;-69
2021/09/14 03:17:29;;;;;;;;;11.00;9.50;;;;;20.82;72.62;100863.97;4992082;28;45570;-69
2021/09/14 03:19:54;;;;;;;;;11.50;10.50;;;;;20.71;72.59;100859.53;4996340;28;45404;-69
2021/09/14 03:22:19;;;;;;;;;9.25;8.00;;;;;20.79;73.05;100856.25;4997510;28;45441;-69
2021/09/14 03:24:45;;;;;;;;;11.50;10.25;;;;;20.70;73.14;100833.81;4990273;28;46296;-69
2021/09/14 03:27:10;;;;;;;;;12.50;12.25;;;;;20.76;73.34;100845.81;4997332;28;45713;-69
2021/09/14 03:29:35;;;;;;;;;14.75;9.00;;;;;20.76;73.94;100846.66;4984134;28;45506;-69
2021/09/14 03:32:01;;;;;;;;;12.50;9.50;;;;;20.74;74.01;100835.25;4991057;28;45543;-69
2021/09/14 03:34:26;;;;;;;;;10.50;9.00;;;;;20.74;73.79;100835.25;4994785;28;45450;-69
2021/09/14 03:36:51;;;;;;;;;12.75;10.75;;;;;20.75;74.13;100844.97;4997077;28;46635;-69
2021/09/14 03:39:17;;;;;;;;;9.00;9.00;;;;;20.75;74.36;100842.28;4992581;28;51156;-69
2021/09/14 03:41:42;;;;;;;;;14.25;10.75;;;;;20.73;74.36;100833.56;4985927;28;52077;-69
2021/09/14 03:44:07;;;;;;;;;10.50;9.00;;;;;20.75;75.03;100830.75;4993167;28;47903;-69
2021/09/14 03:46:33;;;;;;;;;13.25;13.25;;;;;20.75;75.00;100836.09;4988715;28;45578;-69
2021/09/14 03:48:59;;;;;;;;;11.25;10.50;;;;;20.66;74.34;100812.84;4991943;28;52688;-69
2021/09/14 03:51:24;;;;;;;;;8.25;8.25;;;;;20.71;74.48;100814.13;4991063;28;45704;-69
2021/09/14 03:53:49;;;;;;;;;11.50;10.75;;;;;20.69;73.99;100800.06;4995394;28;46237;-69
2021/09/14 03:56:15;;;;;;;;;12.00;11.00;;;;;20.66;74.27;100804.81;4986155;28;45486;-69
2021/09/14 03:58:40;;;;;;;;;11.25;9.75;;;;;20.63;74.25;100811.28;4986353;28;45812;-69
2021/09/14 04:01:06;;;;;;;;;13.00;11.25;;;;;20.58;73.99;100810.81;4995900;28;45425;-69
2021/09/14 04:08:52;;;;;;;;;9.00;8.00;;;;;20.55;74.14;100816.41;4995194;28;45477;-69
2021/09/14 04:11:22;;;;;;;;;9.00;9.00;;;;;20.52;73.93;100806.84;4990094;28;45548;-69
2021/09/14 04:13:49;;;;;;;;;9.00;8.75;;;;;20.56;74.42;100815.41;4991214;28;45425;-69
2021/09/14 04:16:14;;;;;;;;;9.75;9.75;;;;;20.55;74.27;100821.75;4990201;28;45388;-69
2021/09/14 04:18:40;;;;;;;;;15.50;11.75;;;;;20.56;74.45;100818.94;4996096;28;45462;-69
2021/09/14 04:21:05;;;;;;;;;13.25;11.00;;;;;20.56;74.92;100815.41;4990438;28;56948;-69
2021/09/14 04:23:30;;;;;;;;;12.25;11.00;;;;;20.54;74.99;100799.53;4990850;28;46693;-69
2021/09/14 04:25:56;;;;;;;;;13.00;11.50;;;;;20.53;74.74;100816.53;4995455;28;45498;-69
2021/09/14 04:28:21;;;;;;;;;14.50;12.00;;;;;20.55;75.05;100827.94;4994075;28;47375;-69
2021/09/14 04:30:46;;;;;;;;;12.50;10.00;;;;;20.52;75.63;100820.19;5007051;28;45832;-69
2021/09/14 04:33:12;;;;;;;;;12.25;10.25;;;;;20.54;75.28;100820.91;4991885;28;46069;-69
2021/09/14 04:35:37;;;;;;;;;13.50;11.00;;;;;20.53;74.86;100813.03;4988087;28;45634;-69
2021/09/14 04:38:03;;;;;;;;;14.00;14.00;;;;;20.49;75.85;100812.41;4990307;28;54915;-69
2021/09/14 04:40:29;;;;;;;;;13.25;10.75;;;;;20.48;75.90;100796.53;4995268;28;45524;-69
2021/09/14 04:42:54;;;;;;;;;10.75;10.00;;;;;20.44;74.86;100774.56;4995349;28;45638;-69
2021/09/14 04:45:20;;;;;;;;;13.75;12.75;;;;;20.39;75.58;100773.25;4995225;28;45281;-69
2021/09/14 04:47:45;;;;;;;;;12.75;12.75;;;;;20.37;76.27;100783.22;4996130;28;45447;-69
2021/09/14 04:50:10;;;;;;;;;11.00;11.00;;;;;20.36;76.74;100781.50;4991776;28;45631;-69
2021/09/14 04:52:36;;;;;;;;;11.00;11.00;;;;;20.34;76.39;100768.28;4994727;28;45439;-69
2021/09/14 04:55:01;;;;;;;;;13.50;11.25;;;;;20.29;76.64;100758.00;4993055;28;45493;-69
2021/09/14 04:57:27;;;;;;;;;11.00;11.00;;;;;20.18;76.96;100752.69;4994076;28;45360;-69
2021/09/14 04:59:52;;;;;;;;;14.50;12.25;;;;;20.25;77.01;100779.72;4995327;28;45293;-69
2021/09/14 05:02:17;;;;;;;;;12.00;12.00;;;;;20.20;76.46;100769.47;4995473;28;45838;-69
2021/09/14 05:04:43;;;;;;;;;11.25;11.00;;;;;20.17;76.57;100768.84;4993508;28;47712;-69
2021/09/14 05:07:08;;;;;;;;;13.00;11.50;;;;;20.18;77.13;100767.88;4989652;28;47100;-69
2021/09/14 05:09:33;;;;;;;;;13.50;11.50;;;;;20.18;77.00;100768.72;4982053;28;45474;-69
2021/09/14 05:12:00;;;;;;;;;17.50;13.75;;;;;20.19;76.87;100764.22;4995650;28;46900;-69
2021/09/14 05:14:25;;;;;;;;;13.25;11.50;;;;;20.18;76.87;100776.72;4985983;28;45678;-68
2021/09/14 05:16:50;;;;;;;;;16.25;13.25;;;;;20.16;77.12;100773.34;4982596;28;45565;-69
2021/09/14 05:19:22;;;;;;;;;17.50;15.75;;;;;20.06;77.30;100759.06;4982463;28;45569;-69
2021/09/14 05:21:48;;;;;;;;;13.75;10.75;;;;;20.15;77.85;100777.00;4984593;28;47105;-69
2021/09/14 05:24:13;;;;;;;;;11.75;11.75;;;;;20.14;77.23;100779.75;4980720;28;45781;-69
2021/09/14 05:26:41;;;;;;;;;14.25;13.75;;;;;20.13;77.11;100786.09;4989864;28;45478;-69
2021/09/14 05:29:06;;;;;;;;;16.00;14.00;;;;;20.12;77.46;100779.91;4983486;28;45505;-69
2021/09/14 05:31:33;;;;;;;;;11.75;10.50;;;;;20.14;77.86;100814.44;4987704;28;48049;-69
2021/09/14 05:33:59;;;;;;;;;11.75;11.75;;;;;20.13;77.56;100824.28;4985979;28;45470;-69
2021/09/14 05:36:24;;;;;;;;;12.50;11.00;;;;;20.11;76.77;100844.06;4986929;28;45637;-69
2021/09/14 05:38:50;;;;;;;;;11.75;10.25;;;;;20.08;77.00;100851.34;4995979;28;45612;-68
2021/09/14 05:41:15;;;;;;;;;12.25;11.25;;;;;20.08;77.29;100854.00;4994793;28;46116;-69
2021/09/14 05:43:40;;;;;;;;;10.25;9.75;;;;;20.07;77.87;100854.13;4991056;28;45617;-69
2021/09/14 05:46:06;;;;;;;;;14.00;11.25;;;;;20.00;77.90;100845.78;4985419;28;45516;-69
2021/09/14 05:48:33;;;;;;;;;10.50;10.50;;;;;20.09;77.24;100865.50;4993244;28;45348;-69
2021/09/14 05:50:58;;;;;;;;;11.75;10.50;;;;;20.11;77.35;100870.75;4979832;28;45629;-68
2021/09/14 05:53:23;;;;;;;;;10.00;9.50;;;;;20.11;77.31;100884.94;4982357;28;45535;-68
2021/09/14 05:55:49;;;;;;;;;11.75;11.25;;;;;20.05;77.55;100878.28;4982113;28;45454;-68
2021/09/14 05:58:14;;;;;;;;;11.75;10.50;;;;;20.08;77.39;100899.34;4984858;28;45505;-68
2021/09/14 06:00:39;;;;;;;;;10.50;10.50;;;;;20.09;77.92;100908.19;4978331;28;45589;-68
2021/09/14 06:03:05;;;;;;;;;12.50;10.25;;;;;20.09;77.95;100913.53;4974986;28;45533;-68
2021/09/14 06:05:30;;;;;;;;;11.25;8.75;;;;;20.09;77.79;100916.22;4984977;28;45858;-68
2021/09/14 06:07:56;;;;;;;;;9.00;7.25;;;;;20.08;77.86;100911.84;4984390;28;45738;-68
2021/09/14 06:10:21;;;;;;;;;11.50;8.50;;;;;20.06;77.64;100898.63;4982491;28;46571;-68
2021/09/14 06:12:46;;;;;;;;;10.50;8.75;;;;;20.08;77.63;100903.84;4981621;28;45481;-68
2021/09/14 06:15:12;;;;;;;;;10.25;8.00;;;;;20.06;78.47;100911.13;4989698;28;45822;-68
2021/09/14 06:17:39;;;;;;;;;15.25;13.00;;;;;20.06;78.24;100924.47;4986126;28;45537;-69
2021/09/14 06:20:05;;;;;;;;;12.75;11.00;;;;;19.95;78.71;100919.16;4989528;28;46662;-68
2021/09/14 06:22:30;;;;;;;;;15.00;11.75;;;;;19.98;79.03;100925.06;4992012;28;45785;-68
2021/09/14 06:24:56;;;;;;;;;14.75;12.00;;;;;19.99;78.79;100929.47;4992018;28;45499;-68
2021/09/14 06:27:21;;;;;;;;;12.25;10.75;;;;;20.06;79.27;100943.16;4992095;28;45225;-68
2021/09/14 06:29:47;;;;;;;;;17.25;14.00;;;;;20.06;78.91;100948.50;4992475;28;46184;-68
2021/09/14 06:32:12;;;;;;;;;14.75;13.50;;;;;20.08;79.65;100939.38;4991564;28;48661;-68
2021/09/14 06:34:38;;;;;;;;;16.00;14.50;;;;;20.11;79.48;100943.63;4991769;28;45488;-68
2021/09/14 06:37:04;;;;;;;;;15.50;12.50;;;;;20.16;79.10;100945.94;4991561;28;47932;-68
2021/09/14 06:39:30;;;;;;;;;11.75;11.50;;;;;20.15;79.48;100941.56;4976892;28;47839;-68
2021/09/14 06:41:56;;;;;;;;;10.25;10.25;;;;;20.14;79.76;100939.84;4992248;28;45797;-68
2021/09/14 06:44:22;;;;;;;;;12.50;10.75;;;;;20.12;81.42;100937.31;4991704;28;45457;-68
2021/09/14 06:46:49;;;;;;;;;16.25;11.75;;;;;20.07;81.01;100939.50;4990956;28;45764;-69
2021/09/14 06:49:15;;;;;;;;;11.25;10.50;;;;;20.00;81.89;100924.97;4991972;28;45437;-69
2021/09/14 06:51:40;;;;;;;;;10.75;10.75;;;;;19.96;81.17;100939.50;4991879;28;45788;-69
2021/09/14 06:54:06;;;;;;;;;13.00;10.75;;;;;19.92;81.11;100949.56;4991240;28;45483;-69
2021/09/14 06:56:31;;;;;;;;;11.50;11.25;;;;;19.89;81.91;100949.81;4991683;28;45410;-69
2021/09/14 06:58:56;;;;;;;;;13.50;11.50;;;;;19.90;81.32;100948.84;4991476;28;46630;-69
2021/09/14 07:01:22;;;;;;;;;14.25;12.25;;;;;19.90;82.90;100959.53;4990583;28;48381;-69
2021/09/14 07:03:48;;;;;;;;;18.50;15.00;;;;;19.86;82.40;100974.06;4991508;28;45580;-69
2021/09/14 07:06:14;;;;;;;;;17.25;15.25;;;;;19.78;83.18;100984.47;4991387;28;45427;-69
2021/09/14 07:08:40;;;;;;;;;19.50;16.00;;;;;19.78;84.08;100995.13;4988963;28;47343;-69
2021/09/14 07:11:05;;;;;;;;;18.75;14.75;;;;;19.77;83.96;100980.94;4987631;28;45519;-69
2021/09/14 07:13:31;;;;;;;;;17.50;15.25;;;;;19.80;84.00;100971.88;4984160;28;45848;-69
2021/09/14 07:15:56;;;;;;;;;16.25;15.75;;;;;19.79;84.43;100963.03;4991661;28;45774;-69
2021/09/14 07:18:21;;;;;;;;;21.75;18.50;;;;;19.86;84.48;100955.38;4991115;28;46725;-69
2021/09/14 07:20:47;;;;;;;;;19.75;18.00;;;;;19.83;84.06;100930.78;4991789;28;45708;-68
2021/09/14 07:23:12;;;;;;;;;16.25;15.25;;;;;19.85;84.09;100923.50;4993623;28;45730;-69
2021/09/14 07:25:42;;;;;;;;;16.50;14.50;;;;;19.91;84.00;100928.34;4990346;28;45443;-69
2021/09/14 07:28:11;;;;;;;;;18.25;15.00;;;;;19.91;83.55;100907.88;4984295;28;46225;-67
2021/09/14 07:30:37;;;;;;;;;15.50;13.25;;;;;19.90;83.91;100898.19;4988852;28;45745;-68
2021/09/14 07:33:04;;;;;;;;;13.25;11.50;;;;;19.95;84.17;100911.16;4991392;28;45804;-68
2021/09/14 07:35:30;;;;;;;;;14.75;12.50;;;;;20.01;83.88;100905.31;4990961;28;45475;-67
2021/09/14 07:37:56;;;;;;;;;13.75;13.75;;;;;20.06;84.00;100901.31;4983091;28;46640;-67
2021/09/14 07:40:23;;;;;;;;;12.50;11.75;;;;;20.10;83.87;100909.06;4981575;28;45811;-67
2021/09/14 07:42:48;;;;;;;;;12.75;12.00;;;;;20.16;83.54;100908.59;4989408;28;45461;-67
2021/09/14 07:45:14;;;;;;;;;11.25;10.25;;;;;20.17;83.41;100880.91;4987011;28;45493;-67
2021/09/14 07:47:39;;;;;;;;;12.75;12.25;;;;;20.23;83.69;100875.09;4979378;28;45910;-68
2021/09/14 07:50:05;;;;;;;;;13.25;11.50;;;;;20.29;83.96;100878.09;4990116;28;45825;-68
2021/09/14 07:52:31;;;;;;;;;14.00;14.00;;;;;20.33;83.77;100887.56;4986007;28;45623;-68
2021/09/14 07:54:56;;;;;;;;;12.50;11.00;;;;;20.41;83.68;100883.41;4990515;28;45615;-68
2021/09/14 07:57:21;;;;;;;;;11.00;10.25;;;;;20.51;83.82;100895.06;4986448;28;45928;-68
2021/09/14 07:59:46;;;;;;;;;17.00;11.00;;;;;20.59;83.71;100898.78;4992879;28;45495;-68
2021/09/14 08:02:12;;;;;;;;;15.00;11.50;;;;;20.69;83.78;100901.56;4984647;28;46679;-68
2021/09/14 08:04:37;;;;;;;;;10.50;10.50;;;;;20.80;83.67;100904.19;4987211;28;45773;-68
2021/09/14 08:07:03;;;;;;;;;13.50;9.00;;;;;20.95;83.42;100907.41;4992171;28;47022;-69
2021/09/14 08:09:30;;;;;;;;;13.25;8.00;;;;;21.14;83.22;100909.34;4978577;28;45542;-67
2021/09/14 08:11:56;;;;;;;;;12.75;10.25;;;;;21.32;82.89;100907.00;4983773;28;45319;-69
2021/09/14 08:14:22;;;;;;;;;9.75;9.75;;;;;21.48;82.36;100914.53;4993417;28;45642;-69
2021/09/14 08:16:48;;;;;;;;;13.25;11.00;;;;;21.52;81.87;100921.34;4993542;28;45790;-69
2021/09/14 08:19:13;;;;;;;;;15.50;12.25;;;;;21.56;82.42;100925.41;4988897;28;48632;-69
2021/09/14 08:21:39;;;;;;;;;13.50;11.00;;;;;21.55;81.94;100927.25;4993513;28;45547;-67
2021/09/14 08:24:08;;;;;;;;;11.00;11.00;;;;;21.58;81.79;100935.00;4993703;28;45571;-70
2021/09/14 08:26:33;;;;;;;;;14.00;12.75;;;;;21.62;82.18;100933.78;4988177;28;45697;-69
2021/09/14 08:28:58;;;;;;;;;18.00;14.00;;;;;21.61;82.01;100921.38;4988112;28;45470;-69
2021/09/14 08:31:24;;;;;;;;;16.50;14.00;;;;;21.71;81.76;100924.09;4991676;28;45875;-69
2021/09/14 08:33:49;;;;;;;;;15.75;12.25;;;;;21.67;81.20;100921.84;4986544;28;45496;-69
2021/09/14 08:36:14;;;;;;;;;16.00;13.50;;;;;21.68;81.40;100921.69;4990670;28;54909;-69
2021/09/14 08:38:40;;;;;;;;;12.75;12.75;;;;;21.65;81.94;100911.25;4992872;28;45763;-69
2021/09/14 08:41:06;;;;;;;;;17.75;14.50;;;;;21.74;81.49;100921.16;4983840;28;45444;-69
2021/09/14 08:43:37;;;;;;;;;15.25;13.75;;;;;21.96;81.75;100936.19;4986093;28;45519;-69
2021/09/14 08:46:02;;;;;;;;;13.00;13.00;;;;;22.07;81.22;100937.91;4991855;28;46632;-69
2021/09/14 08:48:28;;;;;;;;;13.50;10.50;;;;;22.10;80.93;100941.22;4985091;28;45708;-69
2021/09/14 08:50:54;;;;;;;;;16.25;14.25;;;;;22.14;80.91;100942.63;4993661;28;45747;-69
2021/09/14 08:53:19;;;;;;;;;18.00;16.50;;;;;22.19;80.79;100938.72;4992227;28;45534;-69
2021/09/14 08:55:44;;;;;;;;;12.00;11.00;;;;;22.20;80.46;100938.56;4989080;28;50292;-67
2021/09/14 08:58:13;;;;;;;;;12.50;11.50;;;;;22.20;80.54;100945.75;4990059;28;45399;-69
2021/09/14 09:00:41;;;;;;;;;11.25;6.75;;;;;22.21;80.53;100966.19;4986286;28;45554;-69
2021/09/14 09:03:07;;;;;;;;;12.75;11.50;;;;;22.20;80.72;100959.97;4993170;28;45508;-67
2021/09/14 09:05:38;;;;;;;;;13.00;10.50;;;;;22.18;80.30;100974.47;4988477;28;46289;-69
2021/09/14 09:08:19;;;;;;;;;17.25;15.75;;;;;22.23;81.41;100964.22;4990652;28;45529;-69
2021/09/14 09:11:07;;;;;;;;;13.75;11.25;;;;;22.40;80.80;100960.91;4987155;28;45542;-69
2021/09/14 09:13:53;;;;;;;;;13.00;13.00;;;;;22.52;80.36;100970.50;4987410;28;45706;-68
2021/09/14 09:16:25;;;;;;;;;17.00;14.00;;;;;22.58;80.18;100972.63;4975148;28;47450;-69
2021/09/14 09:19:03;;;;;;;;;11.25;11.00;;;;;22.63;80.52;100970.38;4977913;28;45910;-69
2021/09/14 09:21:39;;;;;;;;;10.50;9.75;;;;;22.77;80.25;100976.34;4989154;28;45450;-67
2021/09/14 09:24:10;;;;;;;;;12.50;12.25;;;;;22.80;79.66;100968.84;4988001;28;45384;-68
2021/09/14 09:26:36;;;;;;;;;13.75;10.75;;;;;22.81;80.12;100973.25;4987183;28;46587;-67
2021/09/14 09:29:06;;;;;;;;;10.25;10.25;;;;;22.76;79.32;100966.59;4989122;28;45585;-69
2021/09/14 09:31:33;;;;;;;;;16.75;14.75;;;;;22.71;79.18;100969.72;4988012;28;45502;-69
2021/09/14 09:34:05;;;;;;;;;14.25;11.00;;;;;22.73;80.24;100967.72;4984961;28;45782;-68
2021/09/14 09:36:33;;;;;;;;;15.00;11.75;;;;;22.76;80.21;100955.88;4977960;28;47486;-67
2021/09/14 09:39:03;;;;;;;;;12.75;12.75;;;;;22.84;79.68;100964.06;4989527;28;45782;-69
2021/09/14 09:41:28;;;;;;;;;14.50;11.50;;;;;22.84;80.19;100966.75;4988011;28;45431;-69
2021/09/14 09:44:07;;;;;;;;;11.25;10.75;;;;;22.90;79.75;100963.53;4987933;28;45610;-69
2021/09/14 09:46:33;;;;;;;;;15.25;12.25;;;;;23.04;79.87;100965.81;4993195;28;45878;-69
2021/09/14 09:49:01;;;;;;;;;13.75;12.00;;;;;23.21;80.81;100944.63;4992037;28;45462;-69
2021/09/14 09:51:27;;;;;;;;;14.50;13.00;;;;;23.34;79.52;100943.38;4992450;28;45400;-69
2021/09/14 09:53:54;;;;;;;;;12.25;12.25;;;;;23.53;78.94;100955.88;4993255;28;45416;-67
2021/09/14 09:56:22;;;;;;;;;11.50;9.75;;;;;23.60;78.99;100951.63;4992410;28;46394;-69
2021/09/14 09:58:49;;;;;;;;;18.50;14.50;;;;;23.60;78.51;100946.28;4992151;28;45569;-69
2021/09/14 10:01:16;;;;;;;;;13.75;12.50;;;;;23.61;78.33;100939.91;4992115;28;45345;-69
2021/09/14 10:03:57;;;;;;;;;16.50;14.25;;;;;23.69;77.82;100944.56;4992356;28;45544;-69
2021/09/14 10:06:28;;;;;;;;;20.50;17.50;;;;;23.84;77.76;100940.44;4991101;28;46870;-69
2021/09/14 10:08:55;;;;;;;;;16.00;16.00;;;;;24.04;77.26;100933.16;4988882;28;45738;-69
2021/09/14 10:11:25;;;;;;;;;16.25;14.25;;;;;24.18;77.35;100946.09;4990126;28;45611;-67
2021/09/14 10:14:02;;;;;;;;;13.00;11.00;;;;;24.25;76.67;100949.00;4987665;28;45508;-69
2021/09/14 10:16:28;;;;;;;;;17.50;17.00;;;;;24.24;77.10;100946.50;4991120;28;46455;-69
2021/09/14 10:18:53;;;;;;;;;19.50;13.75;;;;;24.41;76.57;100943.03;4990256;28;45388;-67
2021/09/14 10:21:19;;;;;;;;;15.00;13.00;;;;;24.69;75.66;100939.31;4990982;28;45515;-67
2021/09/14 10:23:54;;;;;;;;;18.00;13.75;;;;;24.88;75.57;100924.03;4989281;28;45584;-69
2021/09/14 10:26:32;;;;;;;;;16.50;12.75;;;;;24.87;74.00;100933.94;4991122;28;45491;-69
2021/09/14 10:28:57;;;;;;;;;13.50;12.50;;;;;24.72;74.50;100940.84;4991826;28;46116;-69
2021/09/14 10:31:27;;;;;;;;;15.50;14.50;;;;;24.77;75.05;100933.16;4988732;28;45520;-68
2021/09/14 10:34:07;;;;;;;;;17.25;14.00;;;;;24.88;74.79;100932.09;4979815;28;45513;-69
2021/09/14 10:36:34;;;;;;;;;13.75;13.50;;;;;25.06;73.79;100942.81;4984403;28;46357;-69
2021/09/14 10:39:01;;;;;;;;;16.50;15.00;;;;;25.30;73.92;100939.53;4977649;28;45727;-68
2021/09/14 10:41:40;;;;;;;;;17.75;13.00;;;;;25.54;73.56;100936.19;4978868;28;45376;-67
2021/09/14 10:44:09;;;;;;;;;13.50;13.50;;;;;25.94;72.87;100940.97;4981738;28;45653;-68
2021/09/14 10:46:36;;;;;;;;;11.50;11.50;;;;;26.29;71.75;100940.78;4983831;28;46560;-69
2021/09/14 10:49:13;;;;;;;;;13.50;10.00;;;;;26.54;70.66;100946.28;4991413;28;45554;-67
2021/09/14 10:51:38;;;;;;;;;11.00;11.00;;;;;26.61;69.80;100936.53;4979317;28;45490;-67
2021/09/14 10:54:04;;;;;;;;;13.75;11.25;;;;;26.72;68.85;100941.59;4991726;28;45325;-67
2021/09/14 10:56:29;;;;;;;;;10.00;10.00;;;;;26.76;69.65;100942.97;4990279;28;47009;-67
2021/09/14 10:58:55;;;;;;;;;11.50;10.50;;;;;26.84;68.67;100939.44;4991394;28;45637;-67
2021/09/14 11:01:22;;;;;;;;;12.75;11.00;;;;;27.13;68.38;100947.06;4990913;28;45947;-69
2021/09/14 11:04:07;;;;;;;;;15.50;9.25;;;;;27.52;67.71;100938.28;4990330;28;45848;-69
2021/09/14 11:06:33;;;;;;;;;11.25;10.25;;;;;27.77;67.15;100947.19;4978687;28;46386;-69
2021/09/14 11:09:03;;;;;;;;;10.00;9.25;;;;;27.83;66.88;100933.84;4976910;28;46887;-69
2021/09/14 11:11:29;;;;;;;;;12.50;10.50;;;;;27.90;65.58;100931.28;4990878;28;45529;-69
2021/09/14 11:13:54;;;;;;;;;11.00;9.25;;;;;27.98;65.34;100925.00;4990804;28;45546;-70
2021/09/14 11:16:21;;;;;;;;;14.00;11.50;;;;;28.15;65.28;100925.81;4989721;28;46649;-69
2021/09/14 11:18:46;;;;;;;;;11.25;10.50;;;;;28.19;64.33;100922.56;4976991;28;45452;-69
2021/09/14 11:21:14;;;;;;;;;12.50;12.00;;;;;28.29;63.82;100920.47;4985961;28;45782;-69
2021/09/14 11:23:42;;;;;;;;;10.50;10.50;;;;;28.37;62.82;100919.63;4991926;28;45785;-69
2021/09/14 11:26:14;;;;;;;;;13.00;9.75;;;;;28.45;63.06;100916.91;4991205;28;45676;-69
2021/09/14 11:28:41;;;;;;;;;11.50;10.25;;;;;28.68;62.54;100935.00;4988950;28;45506;-69
2021/09/14 11:31:12;;;;;;;;;11.50;10.00;;;;;28.74;62.82;100931.56;4986685;28;45514;-69
2021/09/14 11:33:42;;;;;;;;;13.00;8.75;;;;;28.94;62.11;100930.09;4992664;28;45518;-69
2021/09/14 11:36:08;;;;;;;;;8.75;8.75;;;;;29.24;61.61;100930.19;4994185;28;46579;-69
2021/09/14 11:38:34;;;;;;;;;13.25;12.50;;;;;29.43;60.85;100929.66;4988559;28;45419;-69
2021/09/14 11:41:01;;;;;;;;;9.25;7.25;;;;;29.44;60.73;100915.09;4990725;28;47075;-69
2021/09/14 11:43:29;;;;;;;;;10.25;10.00;;;;;29.66;60.29;100928.81;4992617;28;45699;-69
2021/09/14 11:45:56;;;;;;;;;9.25;8.50;;;;;29.61;59.62;100922.06;4994043;28;46615;-69
2021/09/14 11:48:24;;;;;;;;;10.50;8.50;;;;;29.53;58.18;100918.56;4994335;28;45767;-70
2021/09/14 11:51:05;;;;;;;;;10.50;9.00;;;;;29.50;59.15;100927.06;4991355;28;45581;-69
2021/09/14 11:53:30;;;;;;;;;8.50;8.50;;;;;29.45;58.02;100924.09;4993623;28;45756;-69
2021/09/14 11:55:56;;;;;;;;;11.75;8.75;;;;;29.45;57.92;100911.38;4986241;28;46458;-70
2021/09/14 11:58:35;;;;;;;;;7.25;7.25;;;;;29.44;57.37;100915.09;4981519;28;45940;-69
2021/09/14 12:01:07;;;;;;;;;10.25;6.75;;;;;29.32;57.30;100916.56;4982952;28;45854;-69
2021/09/14 12:03:48;;;;;;;;;9.75;8.75;;;;;29.16;57.86;100909.44;4992031;28;45626;-69
2021/09/14 12:06:22;;;;;;;;;6.75;6.50;;;;;29.24;57.40;100919.38;4987184;28;48104;-69
2021/09/14 12:08:47;;;;;;;;;9.50;6.75;;;;;29.23;56.87;100913.09;4988395;28;45368;-69
2021/09/14 12:11:29;;;;;;;;;9.00;8.25;;;;;29.21;57.45;100914.31;4993891;28;45618;-69